| time (UTC) | temp C | wind direction | speed KPH | gust KPH | rain 1hr cm | rain 24hr cm | rain mn cm | humidity % | barometer mb |
| 20260505062449 | 20 | 192 | 3.2 | 4.8 | 0.00 | 0.00 | 0.00 | 51 | 1018.3 |
| 20260505061449 | 20 | 198 | 3.2 | 4.8 | 0.00 | 0.00 | 0.00 | 49 | 1018.2 |
| 20260505060523 | 20 | 228 | 4.8 | 4.8 | 0.00 | 0.00 | 0.00 | 50 | 1018.0 |
| 20260505060449 | 20 | 228 | 4.8 | 4.8 | 0.00 | 0.00 | 0.00 | 50 | 1018.0 |
| 20260505055449 | 20 | 214 | 8.0 | 8.0 | 0.00 | 0.00 | 0.00 | 50 | 1018.0 |
| 20260505054449 | 20 | 195 | 8.0 | 8.0 | 0.00 | 0.00 | 0.00 | 49 | 1017.9 |
| 20260505053449 | 20 | 221 | 8.0 | 4.8 | 0.00 | 0.00 | 0.00 | 50 | 1017.8 |
| 20260505052449 | 21 | 210 | 3.2 | 4.8 | 0.00 | 0.00 | 0.00 | 47 | 1017.8 |
| 20260505051449 | 21 | 158 | 8.0 | 12.9 | 0.00 | 0.00 | 0.00 | 47 | 1017.7 |
| 20260505050449 | 21 | 247 | 4.8 | 11.3 | 0.00 | 0.00 | 0.00 | 46 | 1017.6 |
| 20260505041449 | 21 | 273 | 11.3 | 12.9 | 0.00 | 0.00 | 0.00 | 47 | 1017.6 |
| 20260505035448 | 21 | 342 | 4.8 | 9.7 | 0.00 | 0.00 | 0.00 | 47 | 1017.4 |
| 20260505034448 | 21 | 17 | 9.7 | 14.5 | 0.00 | 0.00 | 0.00 | 48 | 1017.4 |
| 20260505033448 | 20 | 309 | 8.0 | 12.9 | 0.00 | 0.00 | 0.00 | 49 | 1017.5 |
| 20260505032448 | 20 | 358 | 8.0 | 11.3 | 0.00 | 0.00 | 0.00 | 50 | 1017.4 |
| 20260505031448 | 20 | 266 | 11.3 | 14.5 | 0.00 | 0.00 | 0.00 | 51 | 1017.6 |
| 20260505030448 | 20 | 313 | 9.7 | 9.7 | 0.00 | 0.00 | 0.00 | 52 | 1017.6 |
| 20260505025448 | 20 | 261 | 4.8 | 12.9 | 0.00 | 0.00 | 0.00 | 50 | 1017.9 |
| 20260505024448 | 20 | 276 | 8.0 | 11.3 | 0.00 | 0.00 | 0.00 | 51 | 1017.9 |
| 20260505023448 | 20 | 269 | 4.8 | 8.0 | 0.00 | 0.00 | 0.00 | 52 | 1018.1 |
| 20260505022448 | 19 | 308 | 11.3 | 12.9 | 0.00 | 0.00 | 0.00 | 52 | 1018.2 |
| 20260505021448 | 19 | 339 | 11.3 | 16.1 | 0.00 | 0.00 | 0.00 | 54 | 1018.4 |
| 20260505020447 | 18 | 346 | 9.7 | 12.9 | 0.00 | 0.00 | 0.00 | 55 | 1018.5 |
| 20260505015447 | 18 | 317 | 12.9 | 20.9 | 0.00 | 0.00 | 0.00 | 55 | 1018.5 |
| 20260505014447 | 18 | 281 | 8.0 | 11.3 | 0.00 | 0.00 | 0.00 | 57 | 1018.6 |
| 20260505013447 | 18 | 6 | 9.7 | 12.9 | 0.00 | 0.00 | 0.00 | 57 | 1018.6 |
| 20260505012447 | 18 | 354 | 9.7 | 14.5 | 0.00 | 0.00 | 0.00 | 58 | 1018.7 |
| 20260505011447 | 18 | 339 | 8.0 | 14.5 | 0.00 | 0.00 | 0.00 | 61 | 1018.8 |
| 20260505010447 | 17 | 288 | 9.7 | 14.5 | 0.00 | 0.00 | 0.00 | 60 | 1019.0 |
| 20260505005447 | 17 | 283 | 11.3 | 19.3 | 0.00 | 0.00 | 0.00 | 61 | 1019.0 |
| 20260505004447 | 17 | 265 | 12.9 | 20.9 | 0.00 | 0.00 | 0.00 | 59 | 1019.0 |
| 20260505003447 | 17 | 269 | 9.7 | 12.9 | 0.00 | 0.00 | 0.00 | 60 | 1019.3 |
| 20260505002447 | 17 | 290 | 11.3 | 19.3 | 0.00 | 0.00 | 0.00 | 60 | 1019.3 |
| 20260505001447 | 17 | 311 | 12.9 | 25.7 | 0.00 | 0.00 | 0.00 | 60 | 1019.2 |
| 20260505000447 | 17 | 312 | 9.7 | 14.5 | 0.00 | 0.00 | 0.00 | 62 | 1019.4 |
| 20260504235446 | 16 | 269 | 11.3 | 16.1 | 0.00 | 0.00 | 0.00 | 62 | 1019.5 |
| 20260504234447 | 16 | 286 | 9.7 | 9.7 | 0.00 | 0.00 | 0.00 | 63 | 1019.6 |
| 20260504233447 | 16 | 320 | 9.7 | 14.5 | 0.00 | 0.00 | 0.00 | 65 | 1019.6 |
| 20260504232446 | 16 | 318 | 9.7 | 14.5 | 0.00 | 0.00 | 0.00 | 67 | 1019.7 |
| 20260504231446 | 16 | 300 | 12.9 | 16.1 | 0.00 | 0.00 | 0.00 | 68 | 1019.8 |
| 20260504230446 | 15 | 280 | 8.0 | 9.7 | 0.00 | 0.00 | 0.00 | 69 | 1019.9 |
| 20260504225446 | 15 | 276 | 9.7 | 11.3 | 0.00 | 0.00 | 0.00 | 71 | 1020.0 |
| 20260504224446 | 15 | 274 | 9.7 | 11.3 | 0.00 | 0.00 | 0.00 | 71 | 1020.0 |
| 20260504223446 | 15 | 287 | 4.8 | 11.3 | 0.00 | 0.00 | 0.00 | 72 | 1019.9 |
| 20260504222446 | 15 | 271 | 8.0 | 9.7 | 0.00 | 0.00 | 0.00 | 72 | 1019.9 |
| 20260504221446 | 15 | 276 | 4.8 | 11.3 | 0.00 | 0.00 | 0.00 | 73 | 1019.6 |
| 20260504220446 | 14 | 276 | 4.8 | 4.8 | 0.00 | 0.00 | 0.00 | 74 | 1019.4 |
| 20260504215446 | 14 | 280 | 4.8 | 4.8 | 0.00 | 0.00 | 0.00 | 75 | 1019.3 |
| 20260504214446 | 13 | 270 | 8.0 | 9.7 | 0.00 | 0.00 | 0.00 | 77 | 1019.1 |
| 20260504213446 | 13 | 280 | 8.0 | 11.3 | 0.00 | 0.00 | 0.00 | 78 | 1019.0 |
| 20260504212446 | 13 | 294 | 4.8 | 8.0 | 0.00 | 0.00 | 0.00 | 79 | 1018.9 |
| 20260504211446 | 12 | 276 | 3.2 | 4.8 | 0.00 | 0.00 | 0.00 | 80 | 1018.8 |
| 20260504210445 | 12 | 285 | 3.2 | 4.8 | 0.00 | 0.00 | 0.00 | 81 | 1018.5 |
| 20260504205415 | 12 | 285 | 3.2 | 4.8 | 0.00 | 0.00 | 0.00 | 81 | 1018.3 |
| 20260504204415 | 13 | 278 | 4.8 | 8.0 | 0.00 | 0.00 | 0.00 | 81 | 1018.3 |
| 20260504203415 | 13 | 281 | 4.8 | 4.8 | 0.00 | 0.00 | 0.00 | 81 | 1018.1 |
| 20260504202415 | 13 | 282 | 4.8 | 8.0 | 0.00 | 0.00 | 0.00 | 82 | 1018.0 |
| 20260504201415 | 13 | 278 | 8.0 | 9.7 | 0.00 | 0.00 | 0.00 | 81 | 1017.9 |
| 20260504200415 | 13 | 261 | 4.8 | 4.8 | 0.00 | 0.00 | 0.00 | 82 | 1017.8 |
| 20260504195415 | 13 | 297 | 3.2 | 4.8 | 0.00 | 0.00 | 0.00 | 82 | 1017.8 |
| 20260504194415 | 13 | 295 | 4.8 | 8.0 | 0.00 | 0.00 | 0.00 | 82 | 1017.5 |
| 20260504193415 | 13 | 281 | 8.0 | 9.7 | 0.00 | 0.00 | 0.00 | 81 | 1017.2 |
| 20260504192415 | 13 | 268 | 3.2 | 4.8 | 0.00 | 0.00 | 0.00 | 81 | 1017.0 |
| 20260504191415 | 13 | 270 | 8.0 | 9.7 | 0.00 | 0.00 | 0.00 | 81 | 1017.0 |
| 20260504190415 | 13 | 284 | 9.7 | 9.7 | 0.00 | 0.00 | 0.00 | 80 | 1017.0 |
| 20260504185415 | 14 | 289 | 8.0 | 9.7 | 0.00 | 0.00 | 0.00 | 80 | 1016.9 |
| 20260504184415 | 14 | 289 | 9.7 | 11.3 | 0.00 | 0.00 | 0.00 | 80 | 1016.9 |
| 20260504183415 | 15 | 294 | 8.0 | 9.7 | 0.00 | 0.00 | 0.00 | 80 | 1016.7 |
| 20260504182414 | 15 | 297 | 4.8 | 4.8 | 0.00 | 0.00 | 0.00 | 79 | 1016.7 |
| 20260504181414 | 15 | 291 | 9.7 | 11.3 | 0.00 | 0.00 | 0.00 | 80 | 1016.7 |
| 20260504180414 | 15 | 286 | 9.7 | 11.3 | 0.00 | 0.00 | 0.00 | 80 | 1016.6 |
| 20260504175414 | 16 | 284 | 8.0 | 9.7 | 0.00 | 0.00 | 0.00 | 80 | 1016.5 |
| 20260504174414 | 16 | 283 | 4.8 | 12.9 | 0.00 | 0.00 | 0.00 | 80 | 1016.5 |
| 20260504173414 | 16 | 281 | 8.0 | 9.7 | 0.00 | 0.00 | 0.00 | 80 | 1016.5 |
| 20260504172414 | 16 | 287 | 4.8 | 9.7 | 0.00 | 0.00 | 0.00 | 80 | 1016.4 |
| 20260504171414 | 16 | 282 | 8.0 | 8.0 | 0.00 | 0.00 | 0.00 | 80 | 1016.5 |
| 20260504170414 | 16 | 284 | 4.8 | 8.0 | 0.00 | 0.00 | 0.00 | 81 | 1016.3 |
| 20260504160414 | 16 | 312 | 4.8 | 4.8 | 0.00 | 0.00 | 0.00 | 82 | 1016.8 |
| 20260504150413 | 17 | 284 | 4.8 | 8.0 | 0.00 | 0.00 | 0.00 | 81 | 1016.7 |
| 20260504140413 | 17 | 272 | 11.3 | 14.5 | 0.00 | 0.00 | 0.00 | 80 | 1017.0 |
| 20260504110412 | 18 | 11 | 4.8 | 8.0 | 0.00 | 0.00 | 0.00 | 77 | 1016.6 |
| 20260504100414 | 18 | 12 | 12.9 | 19.3 | 0.00 | 0.00 | 0.00 | 73 | 1016.4 |
| 20260504081410 | 20 | 30 | 9.7 | 19.3 | 0.00 | 0.00 | 0.00 | 69 | 1015.9 |
| 20260504080411 | 20 | 16 | 12.9 | 19.3 | 0.00 | 0.00 | 0.00 | 70 | 1015.8 |
| 20260504070410 | 20 | 28 | 9.7 | 11.3 | 0.00 | 0.00 | 0.00 | 71 | 1015.6 |